sensor_id;sensor_type;location;lat;lon;timestamp;P1;durP1;ratioP1;P2;durP2;ratioP2
4957;SDS011;2494;51.872;9.688;2023-02-17T00:01:01;32.83;;;22.53;;
4957;SDS011;2494;51.872;9.688;2023-02-17T00:03:52;29.60;;;21.83;;
4957;SDS011;2494;51.872;9.688;2023-02-17T00:06:38;25.97;;;18.33;;
4957;SDS011;2494;51.872;9.688;2023-02-17T00:09:23;26.90;;;22.27;;
4957;SDS011;2494;51.872;9.688;2023-02-17T00:12:08;28.53;;;21.80;;
4957;SDS011;2494;51.872;9.688;2023-02-17T00:14:53;24.23;;;18.47;;
4957;SDS011;2494;51.872;9.688;2023-02-17T00:17:39;23.57;;;19.67;;
4957;SDS011;2494;51.872;9.688;2023-02-17T00:20:27;23.53;;;18.80;;
4957;SDS011;2494;51.872;9.688;2023-02-17T00:23:12;25.63;;;18.47;;
4957;SDS011;2494;51.872;9.688;2023-02-17T00:25:57;21.80;;;17.93;;
4957;SDS011;2494;51.872;9.688;2023-02-17T00:28:42;23.50;;;17.63;;
4957;SDS011;2494;51.872;9.688;2023-02-17T00:31:27;25.47;;;18.33;;
4957;SDS011;2494;51.872;9.688;2023-02-17T00:34:15;24.20;;;20.00;;
4957;SDS011;2494;51.872;9.688;2023-02-17T00:37:01;20.77;;;18.53;;
4957;SDS011;2494;51.872;9.688;2023-02-17T00:39:46;24.77;;;20.03;;
4957;SDS011;2494;51.872;9.688;2023-02-17T00:42:31;19.57;;;16.27;;
4957;SDS011;2494;51.872;9.688;2023-02-17T00:45:16;19.00;;;15.50;;
4957;SDS011;2494;51.872;9.688;2023-02-17T00:48:01;19.83;;;15.63;;
4957;SDS011;2494;51.872;9.688;2023-02-17T00:50:47;17.83;;;15.77;;
4957;SDS011;2494;51.872;9.688;2023-02-17T00:53:32;18.27;;;14.93;;
4957;SDS011;2494;51.872;9.688;2023-02-17T00:56:18;20.07;;;14.83;;
4957;SDS011;2494;51.872;9.688;2023-02-17T00:59:03;16.87;;;15.10;;
4957;SDS011;2494;51.872;9.688;2023-02-17T01:01:48;16.23;;;13.50;;
4957;SDS011;2494;51.872;9.688;2023-02-17T01:04:33;15.33;;;13.17;;
4957;SDS011;2494;51.872;9.688;2023-02-17T01:07:21;14.27;;;11.80;;
4957;SDS011;2494;51.872;9.688;2023-02-17T01:10:07;11.63;;;10.40;;
4957;SDS011;2494;51.872;9.688;2023-02-17T01:12:52;10.70;;;9.67;;
4957;SDS011;2494;51.872;9.688;2023-02-17T01:15:37;11.63;;;10.47;;
4957;SDS011;2494;51.872;9.688;2023-02-17T01:18:22;11.37;;;10.30;;
4957;SDS011;2494;51.872;9.688;2023-02-17T01:21:13;11.93;;;10.77;;
4957;SDS011;2494;51.872;9.688;2023-02-17T01:24:01;12.47;;;10.97;;
4957;SDS011;2494;51.872;9.688;2023-02-17T01:26:47;12.00;;;10.80;;
4957;SDS011;2494;51.872;9.688;2023-02-17T01:29:32;11.60;;;10.57;;
4957;SDS011;2494;51.872;9.688;2023-02-17T01:32:17;11.30;;;10.20;;
4957;SDS011;2494;51.872;9.688;2023-02-17T01:35:03;14.63;;;12.73;;
4957;SDS011;2494;51.872;9.688;2023-02-17T01:37:48;14.47;;;13.07;;
4957;SDS011;2494;51.872;9.688;2023-02-17T01:40:34;13.70;;;12.40;;
4957;SDS011;2494;51.872;9.688;2023-02-17T01:43:20;13.70;;;12.40;;
4957;SDS011;2494;51.872;9.688;2023-02-17T01:46:06;15.50;;;12.57;;
4957;SDS011;2494;51.872;9.688;2023-02-17T01:48:51;13.37;;;12.10;;
4957;SDS011;2494;51.872;9.688;2023-02-17T01:51:37;14.70;;;13.30;;
4957;SDS011;2494;51.872;9.688;2023-02-17T01:54:23;13.63;;;12.33;;
4957;SDS011;2494;51.872;9.688;2023-02-17T01:57:12;15.07;;;13.37;;
4957;SDS011;2494;51.872;9.688;2023-02-17T01:59:58;14.93;;;12.93;;
4957;SDS011;2494;51.872;9.688;2023-02-17T02:02:45;14.93;;;13.10;;
4957;SDS011;2494;51.872;9.688;2023-02-17T02:05:31;18.37;;;13.97;;
4957;SDS011;2494;51.872;9.688;2023-02-17T02:08:16;16.50;;;14.80;;
4957;SDS011;2494;51.872;9.688;2023-02-17T02:11:01;15.33;;;13.73;;
4957;SDS011;2494;51.872;9.688;2023-02-17T02:13:48;16.60;;;14.40;;
4957;SDS011;2494;51.872;9.688;2023-02-17T02:16:35;19.33;;;13.60;;
4957;SDS011;2494;51.872;9.688;2023-02-17T02:19:36;14.90;;;13.40;;
4957;SDS011;2494;51.872;9.688;2023-02-17T02:22:39;15.87;;;14.27;;
4957;SDS011;2494;51.872;9.688;2023-02-17T02:25:34;15.17;;;13.20;;
4957;SDS011;2494;51.872;9.688;2023-02-17T02:28:25;14.97;;;13.47;;
4957;SDS011;2494;51.872;9.688;2023-02-17T02:31:24;23.10;;;13.80;;
4957;SDS011;2494;51.872;9.688;2023-02-17T02:34:14;13.03;;;11.73;;
4957;SDS011;2494;51.872;9.688;2023-02-17T02:37:01;15.30;;;12.93;;
4957;SDS011;2494;51.872;9.688;2023-02-17T02:39:49;13.43;;;12.03;;
4957;SDS011;2494;51.872;9.688;2023-02-17T02:42:36;14.97;;;13.43;;
4957;SDS011;2494;51.872;9.688;2023-02-17T02:45:23;14.93;;;13.33;;
4957;SDS011;2494;51.872;9.688;2023-02-17T02:48:08;15.07;;;13.40;;
4957;SDS011;2494;51.872;9.688;2023-02-17T02:51:09;15.00;;;13.60;;
4957;SDS011;2494;51.872;9.688;2023-02-17T02:54:09;14.27;;;12.90;;
4957;SDS011;2494;51.872;9.688;2023-02-17T02:57:02;13.77;;;12.47;;
4957;SDS011;2494;51.872;9.688;2023-02-17T02:59:52;13.13;;;11.83;;
4957;SDS011;2494;51.872;9.688;2023-02-17T03:02:42;15.17;;;13.67;;
4957;SDS011;2494;51.872;9.688;2023-02-17T03:05:31;15.20;;;13.67;;
4957;SDS011;2494;51.872;9.688;2023-02-17T03:08:19;15.30;;;13.70;;
4957;SDS011;2494;51.872;9.688;2023-02-17T03:11:08;15.00;;;13.40;;
4957;SDS011;2494;51.872;9.688;2023-02-17T03:13:53;15.67;;;14.07;;
4957;SDS011;2494;51.872;9.688;2023-02-17T03:16:42;17.37;;;15.57;;
4957;SDS011;2494;51.872;9.688;2023-02-17T03:19:30;16.27;;;13.57;;
4957;SDS011;2494;51.872;9.688;2023-02-17T03:22:16;17.17;;;15.30;;
4957;SDS011;2494;51.872;9.688;2023-02-17T03:25:05;18.20;;;15.23;;
4957;SDS011;2494;51.872;9.688;2023-02-17T03:27:51;17.57;;;15.67;;
4957;SDS011;2494;51.872;9.688;2023-02-17T03:30:36;17.07;;;15.47;;
4957;SDS011;2494;51.872;9.688;2023-02-17T03:33:22;16.80;;;14.50;;
4957;SDS011;2494;51.872;9.688;2023-02-17T03:36:07;19.40;;;16.20;;
4957;SDS011;2494;51.872;9.688;2023-02-17T03:38:52;17.93;;;16.03;;
4957;SDS011;2494;51.872;9.688;2023-02-17T03:41:39;17.10;;;15.30;;
4957;SDS011;2494;51.872;9.688;2023-02-17T03:44:25;18.60;;;14.90;;
4957;SDS011;2494;51.872;9.688;2023-02-17T03:47:10;15.00;;;13.43;;
4957;SDS011;2494;51.872;9.688;2023-02-17T03:49:55;18.17;;;14.80;;
4957;SDS011;2494;51.872;9.688;2023-02-17T03:52:40;16.03;;;14.37;;
4957;SDS011;2494;51.872;9.688;2023-02-17T03:55:25;15.10;;;13.40;;
4957;SDS011;2494;51.872;9.688;2023-02-17T03:58:12;16.33;;;13.30;;
4957;SDS011;2494;51.872;9.688;2023-02-17T04:01:00;17.13;;;14.97;;
4957;SDS011;2494;51.872;9.688;2023-02-17T04:03:45;15.37;;;13.77;;
4957;SDS011;2494;51.872;9.688;2023-02-17T04:06:30;15.53;;;13.93;;
4957;SDS011;2494;51.872;9.688;2023-02-17T04:09:15;17.70;;;14.17;;
4957;SDS011;2494;51.872;9.688;2023-02-17T04:12:00;17.30;;;15.10;;
4957;SDS011;2494;51.872;9.688;2023-02-17T04:14:47;19.17;;;16.00;;
4957;SDS011;2494;51.872;9.688;2023-02-17T04:17:32;14.80;;;13.30;;
4957;SDS011;2494;51.872;9.688;2023-02-17T04:20:19;16.50;;;14.63;;
4957;SDS011;2494;51.872;9.688;2023-02-17T04:23:04;16.53;;;14.53;;
4957;SDS011;2494;51.872;9.688;2023-02-17T04:25:49;19.17;;;15.63;;
4957;SDS011;2494;51.872;9.688;2023-02-17T04:28:36;16.20;;;14.50;;
4957;SDS011;2494;51.872;9.688;2023-02-17T04:31:23;18.23;;;16.23;;
4957;SDS011;2494;51.872;9.688;2023-02-17T04:34:10;17.27;;;15.00;;
4957;SDS011;2494;51.872;9.688;2023-02-17T04:36:56;17.90;;;15.20;;
4957;SDS011;2494;51.872;9.688;2023-02-17T04:39:41;16.07;;;14.40;;
4957;SDS011;2494;51.872;9.688;2023-02-17T04:42:26;16.63;;;14.80;;
4957;SDS011;2494;51.872;9.688;2023-02-17T04:45:11;18.30;;;15.30;;
4957;SDS011;2494;51.872;9.688;2023-02-17T04:47:58;17.00;;;14.90;;
4957;SDS011;2494;51.872;9.688;2023-02-17T04:50:45;16.77;;;14.07;;
4957;SDS011;2494;51.872;9.688;2023-02-17T04:53:31;17.17;;;15.37;;
4957;SDS011;2494;51.872;9.688;2023-02-17T04:56:16;17.43;;;15.53;;
4957;SDS011;2494;51.872;9.688;2023-02-17T04:59:01;17.87;;;15.57;;
4957;SDS011;2494;51.872;9.688;2023-02-17T05:01:47;17.30;;;15.10;;
4957;SDS011;2494;51.872;9.688;2023-02-17T05:04:33;21.33;;;16.63;;
4957;SDS011;2494;51.872;9.688;2023-02-17T05:07:18;16.60;;;14.40;;
4957;SDS011;2494;51.872;9.688;2023-02-17T05:10:04;22.30;;;16.03;;
4957;SDS011;2494;51.872;9.688;2023-02-17T05:12:49;18.57;;;15.70;;
4957;SDS011;2494;51.872;9.688;2023-02-17T05:15:35;18.70;;;15.30;;
4957;SDS011;2494;51.872;9.688;2023-02-17T05:18:20;19.87;;;16.70;;
4957;SDS011;2494;51.872;9.688;2023-02-17T05:21:06;19.27;;;17.27;;
4957;SDS011;2494;51.872;9.688;2023-02-17T05:23:51;18.67;;;16.70;;
4957;SDS011;2494;51.872;9.688;2023-02-17T05:26:36;23.33;;;17.43;;
4957;SDS011;2494;51.872;9.688;2023-02-17T05:29:22;21.63;;;16.40;;
4957;SDS011;2494;51.872;9.688;2023-02-17T05:32:07;19.93;;;16.17;;
4957;SDS011;2494;51.872;9.688;2023-02-17T05:34:53;20.50;;;16.10;;
4957;SDS011;2494;51.872;9.688;2023-02-17T05:37:39;21.70;;;17.33;;
4957;SDS011;2494;51.872;9.688;2023-02-17T05:40:24;24.77;;;16.97;;
4957;SDS011;2494;51.872;9.688;2023-02-17T05:43:11;22.10;;;18.30;;
4957;SDS011;2494;51.872;9.688;2023-02-17T05:45:59;26.03;;;18.60;;
4957;SDS011;2494;51.872;9.688;2023-02-17T05:48:45;19.10;;;16.40;;
4957;SDS011;2494;51.872;9.688;2023-02-17T05:51:31;21.47;;;17.67;;
4957;SDS011;2494;51.872;9.688;2023-02-17T05:54:18;26.67;;;19.80;;
4957;SDS011;2494;51.872;9.688;2023-02-17T05:57:03;25.47;;;17.67;;
4957;SDS011;2494;51.872;9.688;2023-02-17T05:59:48;20.80;;;17.17;;
4957;SDS011;2494;51.872;9.688;2023-02-17T06:02:33;20.63;;;18.20;;
4957;SDS011;2494;51.872;9.688;2023-02-17T06:05:18;19.60;;;17.50;;
4957;SDS011;2494;51.872;9.688;2023-02-17T06:08:03;21.87;;;18.20;;
4957;SDS011;2494;51.872;9.688;2023-02-17T06:10:51;21.47;;;16.23;;
4957;SDS011;2494;51.872;9.688;2023-02-17T06:13:36;19.00;;;16.07;;
4957;SDS011;2494;51.872;9.688;2023-02-17T06:16:21;20.83;;;16.10;;
4957;SDS011;2494;51.872;9.688;2023-02-17T06:19:06;18.43;;;14.10;;
4957;SDS011;2494;51.872;9.688;2023-02-17T06:21:52;19.60;;;16.50;;
4957;SDS011;2494;51.872;9.688;2023-02-17T06:24:38;20.00;;;16.43;;
4957;SDS011;2494;51.872;9.688;2023-02-17T06:27:24;17.47;;;14.83;;
4957;SDS011;2494;51.872;9.688;2023-02-17T06:30:10;19.77;;;16.20;;
4957;SDS011;2494;51.872;9.688;2023-02-17T06:32:56;18.07;;;15.60;;
4957;SDS011;2494;51.872;9.688;2023-02-17T06:35:41;15.80;;;14.13;;
4957;SDS011;2494;51.872;9.688;2023-02-17T06:38:27;15.40;;;13.77;;
4957;SDS011;2494;51.872;9.688;2023-02-17T06:41:12;15.40;;;13.90;;
4957;SDS011;2494;51.872;9.688;2023-02-17T06:43:58;16.87;;;14.70;;
4957;SDS011;2494;51.872;9.688;2023-02-17T06:46:43;15.07;;;12.97;;
4957;SDS011;2494;51.872;9.688;2023-02-17T06:49:29;14.40;;;13.00;;
4957;SDS011;2494;51.872;9.688;2023-02-17T06:52:14;12.37;;;11.30;;
4957;SDS011;2494;51.872;9.688;2023-02-17T06:55:00;14.60;;;13.23;;
4957;SDS011;2494;51.872;9.688;2023-02-17T06:57:45;12.83;;;11.63;;
4957;SDS011;2494;51.872;9.688;2023-02-17T07:00:32;12.00;;;10.93;;
4957;SDS011;2494;51.872;9.688;2023-02-17T07:03:17;13.57;;;12.43;;
4957;SDS011;2494;51.872;9.688;2023-02-17T07:06:02;11.90;;;10.80;;
4957;SDS011;2494;51.872;9.688;2023-02-17T07:08:48;13.17;;;11.80;;
4957;SDS011;2494;51.872;9.688;2023-02-17T07:11:33;12.43;;;11.37;;
4957;SDS011;2494;51.872;9.688;2023-02-17T07:14:18;13.23;;;12.10;;
4957;SDS011;2494;51.872;9.688;2023-02-17T07:17:04;14.27;;;12.70;;
4957;SDS011;2494;51.872;9.688;2023-02-17T07:19:49;12.40;;;11.30;;
4957;SDS011;2494;51.872;9.688;2023-02-17T07:22:34;13.30;;;11.93;;
4957;SDS011;2494;51.872;9.688;2023-02-17T07:25:19;13.20;;;12.00;;
4957;SDS011;2494;51.872;9.688;2023-02-17T07:28:04;13.80;;;12.70;;
4957;SDS011;2494;51.872;9.688;2023-02-17T07:30:49;12.43;;;11.23;;
4957;SDS011;2494;51.872;9.688;2023-02-17T07:33:36;12.47;;;11.33;;
4957;SDS011;2494;51.872;9.688;2023-02-17T07:36:21;12.40;;;11.43;;
4957;SDS011;2494;51.872;9.688;2023-02-17T07:39:06;11.67;;;10.47;;
4957;SDS011;2494;51.872;9.688;2023-02-17T07:41:52;13.50;;;12.10;;
4957;SDS011;2494;51.872;9.688;2023-02-17T07:44:37;12.47;;;11.37;;
4957;SDS011;2494;51.872;9.688;2023-02-17T07:47:22;13.00;;;11.70;;
4957;SDS011;2494;51.872;9.688;2023-02-17T07:50:09;12.23;;;11.23;;
4957;SDS011;2494;51.872;9.688;2023-02-17T07:52:54;12.50;;;11.30;;
4957;SDS011;2494;51.872;9.688;2023-02-17T07:55:40;13.67;;;12.40;;
4957;SDS011;2494;51.872;9.688;2023-02-17T07:58:29;14.37;;;13.00;;
4957;SDS011;2494;51.872;9.688;2023-02-17T08:01:16;12.93;;;11.63;;
4957;SDS011;2494;51.872;9.688;2023-02-17T08:04:01;12.53;;;11.40;;
4957;SDS011;2494;51.872;9.688;2023-02-17T08:06:48;12.40;;;11.30;;
4957;SDS011;2494;51.872;9.688;2023-02-17T08:09:34;11.43;;;10.47;;
4957;SDS011;2494;51.872;9.688;2023-02-17T08:12:36;12.30;;;11.10;;
4957;SDS011;2494;51.872;9.688;2023-02-17T08:15:47;13.50;;;12.10;;
4957;SDS011;2494;51.872;9.688;2023-02-17T08:18:33;12.97;;;11.77;;
4957;SDS011;2494;51.872;9.688;2023-02-17T08:21:18;11.60;;;10.60;;
4957;SDS011;2494;51.872;9.688;2023-02-17T08:24:05;11.17;;;10.27;;
4957;SDS011;2494;51.872;9.688;2023-02-17T08:26:50;11.30;;;10.30;;
4957;SDS011;2494;51.872;9.688;2023-02-17T08:29:35;11.17;;;10.17;;
4957;SDS011;2494;51.872;9.688;2023-02-17T08:32:20;12.10;;;11.00;;
4957;SDS011;2494;51.872;9.688;2023-02-17T08:35:05;11.77;;;10.50;;
4957;SDS011;2494;51.872;9.688;2023-02-17T08:37:51;13.00;;;11.80;;
4957;SDS011;2494;51.872;9.688;2023-02-17T08:40:37;11.77;;;10.67;;
4957;SDS011;2494;51.872;9.688;2023-02-17T08:43:22;12.73;;;11.63;;
4957;SDS011;2494;51.872;9.688;2023-02-17T08:46:07;12.33;;;11.13;;
4957;SDS011;2494;51.872;9.688;2023-02-17T08:48:56;11.37;;;10.37;;
4957;SDS011;2494;51.872;9.688;2023-02-17T08:51:42;12.33;;;10.33;;
4957;SDS011;2494;51.872;9.688;2023-02-17T08:54:27;12.20;;;11.10;;
4957;SDS011;2494;51.872;9.688;2023-02-17T08:57:14;11.23;;;10.23;;
4957;SDS011;2494;51.872;9.688;2023-02-17T09:00:01;11.67;;;10.60;;
4957;SDS011;2494;51.872;9.688;2023-02-17T09:02:49;12.00;;;10.90;;
4957;SDS011;2494;51.872;9.688;2023-02-17T09:05:34;13.70;;;11.00;;
4957;SDS011;2494;51.872;9.688;2023-02-17T09:08:19;11.80;;;10.70;;
4957;SDS011;2494;51.872;9.688;2023-02-17T09:11:04;11.30;;;10.30;;
4957;SDS011;2494;51.872;9.688;2023-02-17T09:13:51;11.00;;;9.90;;
4957;SDS011;2494;51.872;9.688;2023-02-17T09:16:36;9.60;;;8.67;;
4957;SDS011;2494;51.872;9.688;2023-02-17T09:19:22;10.27;;;9.20;;
4957;SDS011;2494;51.872;9.688;2023-02-17T09:22:07;11.80;;;10.70;;
4957;SDS011;2494;51.872;9.688;2023-02-17T09:24:52;9.83;;;8.93;;
4957;SDS011;2494;51.872;9.688;2023-02-17T09:27:37;13.33;;;10.33;;
4957;SDS011;2494;51.872;9.688;2023-02-17T09:30:24;10.00;;;9.10;;
4957;SDS011;2494;51.872;9.688;2023-02-17T09:33:13;10.43;;;9.50;;
4957;SDS011;2494;51.872;9.688;2023-02-17T09:35:58;8.60;;;7.90;;
4957;SDS011;2494;51.872;9.688;2023-02-17T09:38:44;9.03;;;8.30;;
4957;SDS011;2494;51.872;9.688;2023-02-17T09:41:30;7.90;;;7.20;;
4957;SDS011;2494;51.872;9.688;2023-02-17T09:44:21;9.97;;;8.80;;
4957;SDS011;2494;51.872;9.688;2023-02-17T09:47:11;14.07;;;12.40;;
4957;SDS011;2494;51.872;9.688;2023-02-17T09:49:59;92.07;;;55.40;;
4957;SDS011;2494;51.872;9.688;2023-02-17T09:52:46;19.63;;;14.07;;
4957;SDS011;2494;51.872;9.688;2023-02-17T09:55:37;51.07;;;32.47;;
4957;SDS011;2494;51.872;9.688;2023-02-17T09:58:26;15.40;;;14.00;;
4957;SDS011;2494;51.872;9.688;2023-02-17T10:01:19;9.90;;;8.90;;
4957;SDS011;2494;51.872;9.688;2023-02-17T10:04:07;10.17;;;9.17;;
4957;SDS011;2494;51.872;9.688;2023-02-17T10:06:55;10.97;;;9.10;;
4957;SDS011;2494;51.872;9.688;2023-02-17T10:09:45;9.93;;;9.03;;
4957;SDS011;2494;51.872;9.688;2023-02-17T10:12:33;9.43;;;8.53;;
4957;SDS011;2494;51.872;9.688;2023-02-17T10:15:22;9.40;;;8.50;;
4957;SDS011;2494;51.872;9.688;2023-02-17T10:18:10;9.37;;;8.57;;
4957;SDS011;2494;51.872;9.688;2023-02-17T10:20:58;9.07;;;8.30;;
4957;SDS011;2494;51.872;9.688;2023-02-17T10:23:44;9.63;;;8.83;;
4957;SDS011;2494;51.872;9.688;2023-02-17T10:26:36;8.50;;;7.80;;
4957;SDS011;2494;51.872;9.688;2023-02-17T10:29:30;9.37;;;8.47;;
4957;SDS011;2494;51.872;9.688;2023-02-17T10:32:20;8.80;;;7.93;;
4957;SDS011;2494;51.872;9.688;2023-02-17T10:35:11;8.40;;;7.70;;
4957;SDS011;2494;51.872;9.688;2023-02-17T10:38:00;8.83;;;7.97;;
4957;SDS011;2494;51.872;9.688;2023-02-17T10:40:48;8.43;;;7.47;;
4957;SDS011;2494;51.872;9.688;2023-02-17T10:43:33;8.00;;;7.23;;
4957;SDS011;2494;51.872;9.688;2023-02-17T10:46:26;7.03;;;6.50;;
4957;SDS011;2494;51.872;9.688;2023-02-17T10:49:13;6.67;;;6.23;;
4957;SDS011;2494;51.872;9.688;2023-02-17T10:52:00;9.33;;;8.53;;
4957;SDS011;2494;51.872;9.688;2023-02-17T10:54:49;7.63;;;6.93;;
4957;SDS011;2494;51.872;9.688;2023-02-17T10:57:37;7.00;;;6.40;;
4957;SDS011;2494;51.872;9.688;2023-02-17T11:00:23;8.23;;;7.50;;
4957;SDS011;2494;51.872;9.688;2023-02-17T11:03:17;8.10;;;7.30;;
4957;SDS011;2494;51.872;9.688;2023-02-17T11:06:03;7.70;;;7.10;;
4957;SDS011;2494;51.872;9.688;2023-02-17T11:08:49;10.80;;;9.13;;
4957;SDS011;2494;51.872;9.688;2023-02-17T11:11:56;8.20;;;7.50;;
4957;SDS011;2494;51.872;9.688;2023-02-17T11:14:43;13.27;;;7.43;;
4957;SDS011;2494;51.872;9.688;2023-02-17T11:17:30;7.60;;;7.10;;
4957;SDS011;2494;51.872;9.688;2023-02-17T11:20:33;8.00;;;7.40;;
4957;SDS011;2494;51.872;9.688;2023-02-17T11:23:22;7.73;;;6.93;;
4957;SDS011;2494;51.872;9.688;2023-02-17T11:26:08;7.93;;;7.27;;
4957;SDS011;2494;51.872;9.688;2023-02-17T11:29:05;8.57;;;7.30;;
4957;SDS011;2494;51.872;9.688;2023-02-17T11:31:54;9.20;;;8.40;;
4957;SDS011;2494;51.872;9.688;2023-02-17T11:34:40;8.37;;;7.80;;
4957;SDS011;2494;51.872;9.688;2023-02-17T11:37:25;9.10;;;8.20;;
4957;SDS011;2494;51.872;9.688;2023-02-17T11:40:24;7.93;;;7.23;;
4957;SDS011;2494;51.872;9.688;2023-02-17T11:43:14;8.77;;;7.63;;
4957;SDS011;2494;51.872;9.688;2023-02-17T11:46:12;7.50;;;7.00;;
4957;SDS011;2494;51.872;9.688;2023-02-17T11:49:16;7.43;;;6.83;;
4957;SDS011;2494;51.872;9.688;2023-02-17T11:52:11;8.07;;;7.27;;
4957;SDS011;2494;51.872;9.688;2023-02-17T11:55:03;8.80;;;8.10;;
4957;SDS011;2494;51.872;9.688;2023-02-17T11:57:57;7.37;;;6.80;;
4957;SDS011;2494;51.872;9.688;2023-02-17T12:00:49;7.13;;;6.60;;
4957;SDS011;2494;51.872;9.688;2023-02-17T12:03:42;7.30;;;6.70;;
4957;SDS011;2494;51.872;9.688;2023-02-17T12:06:31;6.63;;;6.23;;
4957;SDS011;2494;51.872;9.688;2023-02-17T12:09:18;6.80;;;6.30;;
4957;SDS011;2494;51.872;9.688;2023-02-17T12:12:08;7.20;;;6.70;;
4957;SDS011;2494;51.872;9.688;2023-02-17T12:14:59;6.33;;;5.93;;
4957;SDS011;2494;51.872;9.688;2023-02-17T12:17:49;8.47;;;7.10;;
4957;SDS011;2494;51.872;9.688;2023-02-17T12:20:40;6.10;;;5.50;;
4957;SDS011;2494;51.872;9.688;2023-02-17T12:23:32;5.93;;;5.53;;
4957;SDS011;2494;51.872;9.688;2023-02-17T12:26:21;6.20;;;5.80;;
4957;SDS011;2494;51.872;9.688;2023-02-17T12:29:12;5.97;;;5.53;;
4957;SDS011;2494;51.872;9.688;2023-02-17T12:32:05;5.70;;;5.30;;
4957;SDS011;2494;51.872;9.688;2023-02-17T12:34:54;6.77;;;6.10;;
4957;SDS011;2494;51.872;9.688;2023-02-17T12:37:45;5.10;;;4.80;;
4957;SDS011;2494;51.872;9.688;2023-02-17T12:40:32;5.87;;;5.47;;
4957;SDS011;2494;51.872;9.688;2023-02-17T12:43:22;6.37;;;5.60;;
4957;SDS011;2494;51.872;9.688;2023-02-17T12:46:09;5.80;;;5.33;;
4957;SDS011;2494;51.872;9.688;2023-02-17T12:48:58;5.23;;;4.77;;
4957;SDS011;2494;51.872;9.688;2023-02-17T12:51:47;5.50;;;5.20;;
4957;SDS011;2494;51.872;9.688;2023-02-17T12:54:37;4.37;;;4.00;;
4957;SDS011;2494;51.872;9.688;2023-02-17T12:57:24;3.70;;;3.40;;
4957;SDS011;2494;51.872;9.688;2023-02-17T13:00:13;5.50;;;5.00;;
4957;SDS011;2494;51.872;9.688;2023-02-17T13:03:03;6.10;;;5.03;;
4957;SDS011;2494;51.872;9.688;2023-02-17T13:05:50;4.90;;;4.50;;
4957;SDS011;2494;51.872;9.688;2023-02-17T13:08:38;4.63;;;4.27;;
4957;SDS011;2494;51.872;9.688;2023-02-17T13:11:28;4.80;;;4.50;;
4957;SDS011;2494;51.872;9.688;2023-02-17T13:14:22;5.47;;;5.00;;
4957;SDS011;2494;51.872;9.688;2023-02-17T13:17:20;5.63;;;4.50;;
4957;SDS011;2494;51.872;9.688;2023-02-17T13:20:37;4.37;;;4.17;;
4957;SDS011;2494;51.872;9.688;2023-02-17T13:23:26;4.80;;;4.30;;
4957;SDS011;2494;51.872;9.688;2023-02-17T13:26:13;6.03;;;4.07;;
4957;SDS011;2494;51.872;9.688;2023-02-17T13:29:10;5.37;;;4.33;;
4957;SDS011;2494;51.872;9.688;2023-02-17T13:31:56;4.37;;;3.93;;
4957;SDS011;2494;51.872;9.688;2023-02-17T13:34:42;6.50;;;4.53;;
4957;SDS011;2494;51.872;9.688;2023-02-17T13:37:36;6.30;;;5.80;;
4957;SDS011;2494;51.872;9.688;2023-02-17T13:40:35;5.50;;;5.00;;
4957;SDS011;2494;51.872;9.688;2023-02-17T13:43:21;5.30;;;4.90;;
4957;SDS011;2494;51.872;9.688;2023-02-17T13:46:10;6.33;;;5.80;;
4957;SDS011;2494;51.872;9.688;2023-02-17T13:48:59;7.77;;;6.60;;
4957;SDS011;2494;51.872;9.688;2023-02-17T13:51:45;7.83;;;7.13;;
4957;SDS011;2494;51.872;9.688;2023-02-17T13:54:31;6.17;;;5.67;;
4957;SDS011;2494;51.872;9.688;2023-02-17T13:57:23;6.80;;;6.27;;
4957;SDS011;2494;51.872;9.688;2023-02-17T14:00:15;6.13;;;5.70;;
4957;SDS011;2494;51.872;9.688;2023-02-17T14:03:10;8.00;;;6.60;;
4957;SDS011;2494;51.872;9.688;2023-02-17T14:05:56;7.00;;;6.50;;
4957;SDS011;2494;51.872;9.688;2023-02-17T14:08:46;6.93;;;6.33;;
4957;SDS011;2494;51.872;9.688;2023-02-17T14:11:31;7.80;;;7.10;;
4957;SDS011;2494;51.872;9.688;2023-02-17T14:14:16;7.97;;;7.27;;
4957;SDS011;2494;51.872;9.688;2023-02-17T14:17:02;7.37;;;6.67;;
4957;SDS011;2494;51.872;9.688;2023-02-17T14:19:49;8.60;;;7.80;;
4957;SDS011;2494;51.872;9.688;2023-02-17T14:22:34;11.17;;;10.07;;
4957;SDS011;2494;51.872;9.688;2023-02-17T14:25:24;11.77;;;10.67;;
4957;SDS011;2494;51.872;9.688;2023-02-17T14:28:20;12.10;;;11.03;;
4957;SDS011;2494;51.872;9.688;2023-02-17T14:31:08;12.70;;;11.53;;
4957;SDS011;2494;51.872;9.688;2023-02-17T14:33:54;19.07;;;13.50;;
4957;SDS011;2494;51.872;9.688;2023-02-17T14:36:41;17.67;;;15.90;;
4957;SDS011;2494;51.872;9.688;2023-02-17T14:39:26;14.50;;;13.10;;
4957;SDS011;2494;51.872;9.688;2023-02-17T14:42:11;17.60;;;15.70;;
4957;SDS011;2494;51.872;9.688;2023-02-17T14:44:56;17.03;;;15.23;;
4957;SDS011;2494;51.872;9.688;2023-02-17T14:47:41;16.00;;;14.37;;
4957;SDS011;2494;51.872;9.688;2023-02-17T14:50:26;18.10;;;16.10;;
4957;SDS011;2494;51.872;9.688;2023-02-17T14:53:14;15.30;;;13.70;;
4957;SDS011;2494;51.872;9.688;2023-02-17T14:56:02;17.60;;;15.43;;
4957;SDS011;2494;51.872;9.688;2023-02-17T14:58:50;15.90;;;14.40;;
4957;SDS011;2494;51.872;9.688;2023-02-17T15:01:35;16.00;;;14.33;;
4957;SDS011;2494;51.872;9.688;2023-02-17T15:04:20;14.17;;;12.67;;
4957;SDS011;2494;51.872;9.688;2023-02-17T15:07:07;12.23;;;11.13;;
4957;SDS011;2494;51.872;9.688;2023-02-17T15:09:55;13.03;;;11.83;;
4957;SDS011;2494;51.872;9.688;2023-02-17T15:12:40;13.43;;;12.10;;
4957;SDS011;2494;51.872;9.688;2023-02-17T15:15:25;12.17;;;11.07;;
4957;SDS011;2494;51.872;9.688;2023-02-17T15:18:10;11.73;;;10.70;;
4957;SDS011;2494;51.872;9.688;2023-02-17T15:20:55;11.07;;;10.13;;
4957;SDS011;2494;51.872;9.688;2023-02-17T15:23:40;10.90;;;9.90;;
4957;SDS011;2494;51.872;9.688;2023-02-17T15:26:27;9.43;;;8.73;;
4957;SDS011;2494;51.872;9.688;2023-02-17T15:29:14;7.83;;;7.10;;
4957;SDS011;2494;51.872;9.688;2023-02-17T15:32:00;7.87;;;7.27;;
4957;SDS011;2494;51.872;9.688;2023-02-17T15:34:47;7.70;;;6.90;;
4957;SDS011;2494;51.872;9.688;2023-02-17T15:37:32;6.90;;;6.33;;
4957;SDS011;2494;51.872;9.688;2023-02-17T15:40:18;5.60;;;5.20;;
4957;SDS011;2494;51.872;9.688;2023-02-17T15:43:05;5.47;;;5.10;;
4957;SDS011;2494;51.872;9.688;2023-02-17T15:45:50;6.60;;;6.03;;
4957;SDS011;2494;51.872;9.688;2023-02-17T15:48:36;6.87;;;6.33;;
4957;SDS011;2494;51.872;9.688;2023-02-17T15:51:24;5.93;;;5.43;;
4957;SDS011;2494;51.872;9.688;2023-02-17T15:54:09;6.10;;;5.50;;
4957;SDS011;2494;51.872;9.688;2023-02-17T15:56:55;6.70;;;5.80;;
4957;SDS011;2494;51.872;9.688;2023-02-17T15:59:41;5.40;;;4.90;;
4957;SDS011;2494;51.872;9.688;2023-02-17T16:02:26;6.80;;;6.20;;
4957;SDS011;2494;51.872;9.688;2023-02-17T16:05:12;7.10;;;6.40;;
4957;SDS011;2494;51.872;9.688;2023-02-17T16:07:58;6.57;;;6.03;;
4957;SDS011;2494;51.872;9.688;2023-02-17T16:10:43;9.00;;;5.83;;
4957;SDS011;2494;51.872;9.688;2023-02-17T16:13:29;6.40;;;5.80;;
4957;SDS011;2494;51.872;9.688;2023-02-17T16:16:16;6.60;;;6.00;;
4957;SDS011;2494;51.872;9.688;2023-02-17T16:19:02;6.80;;;5.70;;
4957;SDS011;2494;51.872;9.688;2023-02-17T16:21:47;6.87;;;6.27;;
4957;SDS011;2494;51.872;9.688;2023-02-17T16:24:32;7.20;;;6.57;;
4957;SDS011;2494;51.872;9.688;2023-02-17T16:27:18;6.50;;;5.00;;
4957;SDS011;2494;51.872;9.688;2023-02-17T16:30:06;7.77;;;7.10;;
4957;SDS011;2494;51.872;9.688;2023-02-17T16:32:59;6.30;;;5.80;;
4957;SDS011;2494;51.872;9.688;2023-02-17T16:35:44;6.47;;;5.63;;
4957;SDS011;2494;51.872;9.688;2023-02-17T16:38:30;7.77;;;6.13;;
4957;SDS011;2494;51.872;9.688;2023-02-17T16:41:17;7.20;;;6.40;;
4957;SDS011;2494;51.872;9.688;2023-02-17T16:44:02;6.17;;;5.67;;
4957;SDS011;2494;51.872;9.688;2023-02-17T16:46:48;6.47;;;5.77;;
4957;SDS011;2494;51.872;9.688;2023-02-17T16:49:36;8.30;;;7.23;;
4957;SDS011;2494;51.872;9.688;2023-02-17T16:52:24;6.03;;;5.50;;
4957;SDS011;2494;51.872;9.688;2023-02-17T16:55:13;6.23;;;5.73;;
4957;SDS011;2494;51.872;9.688;2023-02-17T16:57:58;6.47;;;5.87;;
4957;SDS011;2494;51.872;9.688;2023-02-17T17:00:44;6.27;;;5.73;;